Time;durP1;ratioP1;P1;durP2;ratioP2;P2;SDS_P1;SDS_P2;PMS_P1;PMS_P2;Temp;Humidity;BMP_temperature;BMP_pressure;BME280_temperature;BME280_humidity;BME280_pressure;Samples;Min_cycle;Max_cycle;Signal;HPM_P1;HPM_P2
2022/12/07 00:01:39;;;;;;;;;;;6.30;64.00;;;1.14;99.89;95534.81;4970758;28;19952;-51
2022/12/07 00:04:07;;;;;;;;;;;6.30;64.90;;;1.16;99.75;95532.00;4977626;28;19913;-54
2022/12/07 00:06:36;;;;;;;;;;;6.30;64.10;;;1.12;99.52;95542.09;5003447;28;20390;-52
2022/12/07 00:09:05;;;;;;;;;;;6.30;64.10;;;1.11;99.72;95527.38;5004458;28;19909;-51
2022/12/07 00:11:32;;;;;;;;;;;6.30;64.10;;;1.15;99.87;95530.38;4989525;28;20409;-51
2022/12/07 00:14:05;;;;;;;;;;;6.20;64.10;;;1.15;99.46;95528.56;4990703;28;20426;-51
2022/12/07 00:16:35;;;;;;;;;;;6.20;64.20;;;1.16;99.44;95529.38;4972463;28;19914;-50
2022/12/07 00:19:01;;;;;;;;;;;6.30;64.30;;;1.15;99.30;95533.00;4986524;28;19967;-52
2022/12/07 00:21:35;;;;;;;;;;;6.20;64.20;;;1.16;99.27;95532.00;4993382;28;19944;-51
2022/12/07 00:24:04;;;;;;;;;;;6.20;64.20;;;1.15;99.22;95530.38;5008885;28;19909;-50
2022/12/07 00:26:39;;;;;;;;;;;6.20;64.30;;;1.12;99.12;95530.78;4975185;28;19928;-51
2022/12/07 00:29:14;;;;;;;;;;;6.20;64.30;;;1.06;99.21;95532.41;4980143;28;20339;-52
2022/12/07 00:31:42;;;;;;;;;;;6.20;64.30;;;1.00;98.89;95530.59;4988729;28;20411;-53
2022/12/07 00:34:14;;;;;;;;;;;6.20;64.30;;;1.01;99.04;95521.75;5004394;28;20004;-52
2022/12/07 00:36:40;;;;;;;;;;;6.20;64.30;;;1.01;99.07;95523.56;4992851;28;19921;-50
2022/12/07 00:39:06;;;;;;;;;;;6.10;64.30;;;1.01;98.81;95527.00;4992767;28;19932;-52
2022/12/07 00:41:35;;;;;;;;;;;6.10;64.30;;;1.03;99.17;95522.31;5008820;28;19917;-52
2022/12/07 00:44:03;;;;;;;;;;;6.10;64.40;;;1.02;99.45;95525.19;4993943;28;19910;-52
2022/12/07 00:46:30;;;;;;;;;;;6.10;64.40;;;1.03;99.28;95522.31;4959717;28;19917;-53
2022/12/07 00:49:01;;;;;;;;;;;6.10;64.40;;;1.05;98.66;95522.94;4975578;28;20000;-52
2022/12/07 00:51:27;;;;;;;;;;;6.10;64.50;;;1.06;99.14;95521.13;4998078;28;20514;-53
2022/12/07 00:53:54;;;;;;;;;;;6.10;64.50;;;1.08;98.65;95525.16;5008547;28;20149;-50
2022/12/07 00:56:26;;;;;;;;;;;6.20;64.60;;;1.09;98.52;95520.69;4990346;28;19963;-50
2022/12/07 00:59:05;;;;;;;;;;;6.10;64.50;;;1.09;98.45;95518.88;4988566;28;20008;-51
2022/12/07 01:01:34;;;;;;;;;;;6.10;64.50;;;1.07;97.71;95518.31;4992866;28;20272;-52
2022/12/07 01:04:01;;;;;;;;;;;6.10;64.40;;;1.07;97.93;95518.31;4991173;28;19913;-50
2022/12/07 01:06:27;;;;;;;;;;;6.20;64.60;;;1.02;98.40;95518.09;4976733;28;19921;-50
2022/12/07 01:08:56;;;;;;;;;;;6.20;64.60;;;1.04;98.76;95512.66;4991163;28;19909;-51
2022/12/07 01:11:31;;;;;;;;;;;6.20;64.60;;;1.08;98.68;95521.72;4989079;28;19936;-51
2022/12/07 01:13:59;;;;;;;;;;;6.20;64.50;;;1.09;98.35;95525.94;4992097;28;19910;-52
2022/12/07 01:16:28;;;;;;;;;;;6.20;64.60;;;1.10;98.38;95525.75;4990019;28;19920;-52
2022/12/07 01:19:00;;;;;;;;;;;6.20;64.50;;;1.09;98.34;95523.31;4993491;28;19909;-52
2022/12/07 01:21:32;;;;;;;;;;;6.20;64.50;;;1.10;98.21;95519.72;4991740;28;19914;-52
2022/12/07 01:23:58;;;;;;;;;;;6.20;64.40;;;1.11;98.04;95523.94;4993277;28;19909;-51
2022/12/07 01:26:25;;;;;;;;;;;6.20;64.40;;;1.09;97.97;95521.50;4991493;28;19939;-50
2022/12/07 01:28:54;;;;;;;;;;;6.20;64.40;;;1.08;98.07;95524.34;4985937;28;19913;-51
2022/12/07 01:31:28;;;;;;;;;;;6.20;64.40;;;1.05;98.01;95515.06;4991606;28;19951;-50
2022/12/07 01:33:57;;;;;;;;;;;6.20;64.40;;;1.06;97.78;95521.91;4991286;28;19909;-50
2022/12/07 01:36:30;;;;;;;;;;;6.30;64.50;;;1.05;97.93;95522.13;4987645;28;20008;-53
2022/12/07 01:38:59;;;;;;;;;;;6.20;64.40;;;1.05;97.89;95519.50;4970325;28;19920;-52
2022/12/07 01:41:30;;;;;;;;;;;6.30;64.50;;;1.08;97.75;95514.66;4971079;28;19945;-50
2022/12/07 01:44:31;;;;;;;;;;;6.30;64.40;;;1.10;97.62;95517.09;4972348;28;20332;-52
2022/12/07 01:47:03;;;;;;;;;;;6.30;64.40;;;1.11;97.73;95521.31;4983700;28;19914;-50
2022/12/07 01:49:29;;;;;;;;;;;6.30;64.40;;;1.11;97.71;95523.94;4973103;28;19909;-52
2022/12/07 01:52:29;;;;;;;;;;;6.30;64.40;;;1.13;97.45;95524.56;4971487;28;19925;-55
2022/12/07 01:55:09;;;;;;;;;;;6.30;64.50;;;1.12;97.41;95517.66;4987928;28;20439;-50
2022/12/07 01:57:41;;;;;;;;;;;6.30;64.50;;;1.13;97.84;95527.16;4987618;28;19917;-50
2022/12/07 02:00:09;;;;;;;;;;;6.30;64.50;;;1.11;97.36;95522.13;4971938;28;20058;-51
2022/12/07 02:02:43;;;;;;;;;;;6.30;64.50;;;1.09;97.40;95518.09;4986540;28;20004;-51
2022/12/07 02:05:10;;;;;;;;;;;6.30;64.50;;;1.12;97.15;95521.09;4988458;28;20390;-50
2022/12/07 02:07:38;;;;;;;;;;;6.30;64.50;;;1.11;97.19;95519.50;4987459;28;19917;-51
2022/12/07 02:10:22;;;;;;;;;;;6.30;64.40;;;1.11;97.40;95519.50;4971333;28;19910;-50
2022/12/07 02:13:26;;;;;;;;;;;6.30;64.40;;;1.09;97.46;95511.00;4972618;28;19913;-51
2022/12/07 02:16:18;;;;;;;;;;;6.30;64.40;;;1.10;97.47;95514.47;4984346;28;20368;-50
2022/12/07 02:19:24;;;;;;;;;;;6.30;64.40;;;1.08;97.59;95513.84;4962962;28;20008;-52
2022/12/07 02:22:11;;;;;;;;;;;6.30;64.40;;;1.10;97.14;95510.03;4971718;28;19920;-51
2022/12/07 02:25:21;;;;;;;;;;;6.20;64.40;;;1.09;97.12;95513.63;4971468;28;19913;-51
2022/12/07 02:28:45;;;;;;;;;;;6.30;64.50;;;1.03;97.61;95505.78;4985895;28;19937;-50
2022/12/07 02:31:21;;;;;;;;;;;6.20;64.60;;;1.06;97.52;95508.81;4986836;28;19914;-52
2022/12/07 02:34:02;;;;;;;;;;;6.20;64.60;;;1.03;97.08;95505.78;4982799;28;20372;-50
2022/12/07 02:36:46;;;;;;;;;;;6.20;64.60;;;1.09;97.07;95502.34;4985778;28;19983;-51
2022/12/07 02:39:28;;;;;;;;;;;6.20;64.50;;;1.11;96.81;95502.94;4969771;28;20360;-50
2022/12/07 02:42:17;;;;;;;;;;;6.20;64.60;;;1.12;97.01;95502.72;4980007;28;19937;-54
2022/12/07 02:44:51;;;;;;;;;;;6.30;64.60;;;1.12;96.53;95507.16;4980887;28;19960;-50
2022/12/07 02:47:21;;;;;;;;;;;6.30;65.40;;;1.13;96.39;95506.97;4985090;28;19917;-53
2022/12/07 02:49:51;;;;;;;;;;;6.30;64.60;;;1.12;96.33;95504.56;4986959;28;20392;-53
2022/12/07 02:52:20;;;;;;;;;;;6.30;64.50;;;1.14;95.96;95513.84;4953401;28;19909;-53
2022/12/07 02:54:45;;;;;;;;;;;6.30;64.50;;;1.15;96.31;95506.75;4971924;28;20005;-54
2022/12/07 02:58:00;;;;;;;;;;;6.30;64.50;;;1.18;96.35;95500.31;4968928;28;20048;-52
2022/12/07 03:00:43;;;;;;;;;;;6.30;64.40;;;1.15;96.29;95497.06;4986572;28;19914;-54
2022/12/07 03:03:15;;;;;;;;;;;6.30;64.50;;;1.15;96.46;95496.25;4969987;28;19914;-53
2022/12/07 03:06:15;;;;;;;;;;;6.30;64.50;;;1.14;96.47;95492.84;4987710;28;19964;-52
2022/12/07 03:09:30;;;;;;;;;;;6.30;64.50;;;1.15;97.08;95494.44;4970657;28;19914;-55
2022/12/07 03:12:12;;;;;;;;;;;6.40;64.50;;;1.13;97.25;95486.00;4969504;28;19951;-50
2022/12/07 03:14:57;;;;;;;;;;;6.40;64.50;;;1.18;97.30;95484.56;4970541;28;19910;-50
2022/12/07 03:17:33;;;;;;;;;;;6.40;64.50;;;1.18;97.03;95487.19;4985173;28;19920;-50
2022/12/07 03:20:05;;;;;;;;;;;6.40;64.50;;;1.19;96.94;95484.34;4986488;28;19914;-51
2022/12/07 03:22:39;;;;;;;;;;;6.40;64.50;;;1.20;96.97;95482.53;4970093;28;19956;-52
2022/12/07 03:25:13;;;;;;;;;;;6.40;64.40;;;1.21;96.93;95487.56;4985913;28;20460;-53
2022/12/07 03:28:01;;;;;;;;;;;6.40;64.50;;;1.20;96.83;95485.16;4969177;28;19909;-53
2022/12/07 03:30:57;;;;;;;;;;;6.40;64.40;;;1.24;97.07;95483.72;4971337;28;19910;-51
2022/12/07 03:33:41;;;;;;;;;;;6.40;64.40;;;1.26;96.80;95484.34;4983091;28;20376;-50
2022/12/07 03:36:34;;;;;;;;;;;6.40;64.40;;;1.26;96.57;95486.97;4972644;28;19922;-50
2022/12/07 03:39:31;;;;;;;;;;;6.50;64.50;;;1.27;96.52;95491.19;4970754;28;19918;-51
2022/12/07 03:42:03;;;;;;;;;;;6.40;64.50;;;1.28;96.68;95492.78;4981127;28;19916;-53
2022/12/07 03:44:29;;;;;;;;;;;6.40;64.50;;;1.25;96.69;95487.94;4985095;28;19922;-50
2022/12/07 03:47:01;;;;;;;;;;;6.50;64.50;;;1.26;96.78;95487.75;4969781;28;19917;-51
2022/12/07 03:50:11;;;;;;;;;;;6.50;64.50;;;1.25;96.48;95490.56;4971466;28;19913;-50
2022/12/07 03:52:58;;;;;;;;;;;6.50;64.50;;;1.23;97.00;95488.16;4960775;28;20306;-51
2022/12/07 03:55:35;;;;;;;;;;;6.50;64.40;;;1.24;97.21;95488.97;4985580;28;19963;-50
2022/12/07 03:58:16;;;;;;;;;;;6.50;64.50;;;1.26;97.26;95494.84;4988755;28;19941;-52
2022/12/07 04:00:43;;;;;;;;;;;6.50;64.50;;;1.28;97.09;95492.78;4969099;28;19944;-51
2022/12/07 04:03:11;;;;;;;;;;;6.50;64.50;;;1.26;97.03;95484.34;4969281;28;19910;-53
2022/12/07 04:05:38;;;;;;;;;;;6.50;64.50;;;1.26;96.89;95486.97;4985284;28;20169;-52
2022/12/07 04:08:07;;;;;;;;;;;6.50;64.40;;;1.28;97.17;95490.16;4972572;28;19971;-50
2022/12/07 04:10:33;;;;;;;;;;;6.50;64.40;;;1.30;97.09;95493.41;4967401;28;20368;-51
2022/12/07 04:12:59;;;;;;;;;;;6.50;64.40;;;1.28;97.00;95488.34;4956149;28;19956;-51
2022/12/07 04:15:25;;;;;;;;;;;6.50;64.40;;;1.24;97.65;95481.09;4972825;28;19963;-52
2022/12/07 04:17:52;;;;;;;;;;;6.50;64.40;;;1.25;97.76;95486.13;4971833;28;20356;-51
2022/12/07 04:20:28;;;;;;;;;;;6.50;64.40;;;1.25;97.84;95480.88;4973087;28;19944;-50
2022/12/07 04:22:53;;;;;;;;;;;6.50;64.40;;;1.25;97.47;95480.06;4973393;28;20283;-50
2022/12/07 04:25:25;;;;;;;;;;;6.50;64.40;;;1.26;97.46;95477.25;4978940;28;19918;-50
2022/12/07 04:27:51;;;;;;;;;;;6.50;64.40;;;1.27;97.77;95472.81;4987681;28;19960;-50
2022/12/07 04:30:23;;;;;;;;;;;6.50;64.40;;;1.26;97.66;95482.50;4988620;28;19913;-52
2022/12/07 04:32:54;;;;;;;;;;;6.50;64.40;;;1.28;97.61;95482.28;4981739;28;19910;-51
2022/12/07 04:35:20;;;;;;;;;;;6.50;64.40;;;1.31;97.52;95479.25;4983989;28;19929;-55
2022/12/07 04:37:49;;;;;;;;;;;6.50;64.50;;;1.28;97.59;95480.47;4985252;28;20372;-48
2022/12/07 04:40:21;;;;;;;;;;;6.50;64.50;;;1.29;97.81;95476.03;4972950;28;19910;-48
2022/12/07 04:42:49;;;;;;;;;;;6.50;64.50;;;1.28;97.99;95479.66;4972998;28;19980;-48
2022/12/07 04:45:15;;;;;;;;;;;6.50;64.50;;;1.27;98.22;95484.09;4986537;28;19913;-50
2022/12/07 04:47:41;;;;;;;;;;;6.50;64.50;;;1.26;98.12;95474.63;4987963;28;19916;-48
2022/12/07 04:50:12;;;;;;;;;;;6.50;64.50;;;1.26;98.57;95479.09;4972315;28;19957;-50
2022/12/07 04:52:37;;;;;;;;;;;6.50;64.50;;;1.25;98.16;95485.31;4976570;28;20371;-49
2022/12/07 04:55:04;;;;;;;;;;;6.50;64.50;;;1.24;98.18;95484.53;4972892;28;19914;-48
2022/12/07 04:57:29;;;;;;;;;;;6.50;64.50;;;1.25;98.17;95483.50;4971419;28;20161;-49
2022/12/07 04:59:55;;;;;;;;;;;6.50;64.50;;;1.25;98.47;95480.88;4973271;28;20020;-48
2022/12/07 05:02:21;;;;;;;;;;;6.50;64.60;;;1.24;98.50;95489.78;4969263;28;19910;-48
2022/12/07 05:04:46;;;;;;;;;;;6.50;64.60;;;1.23;98.71;95485.56;4982234;28;19996;-49
2022/12/07 05:07:15;;;;;;;;;;;6.50;64.70;;;1.26;98.54;95487.75;4959143;28;19910;-48
2022/12/07 05:09:41;;;;;;;;;;;6.50;64.60;;;1.26;98.63;95495.63;4971894;28;19910;-48
2022/12/07 05:12:07;;;;;;;;;;;6.50;64.60;;;1.26;98.95;95492.22;4971649;28;20000;-51
2022/12/07 05:14:33;;;;;;;;;;;6.40;64.60;;;1.28;98.98;95490.97;4971693;28;19975;-50
2022/12/07 05:16:58;;;;;;;;;;;6.50;64.70;;;1.28;98.86;95492.78;4986929;28;19909;-48
2022/12/07 05:19:25;;;;;;;;;;;6.50;64.70;;;1.27;98.94;95483.31;4972768;28;19913;-48
2022/12/07 05:21:51;;;;;;;;;;;6.50;64.70;;;1.27;98.94;95483.31;4971954;28;19913;-50
2022/12/07 05:24:29;;;;;;;;;;;6.50;64.70;;;1.24;99.02;95481.91;4955163;28;19917;-48
2022/12/07 05:26:58;;;;;;;;;;;6.50;64.70;;;1.26;98.70;95485.13;4971508;28;19918;-48
2022/12/07 05:29:24;;;;;;;;;;;6.50;64.70;;;1.26;98.93;95479.88;4971549;28;19991;-50
2022/12/07 05:31:49;;;;;;;;;;;6.40;64.60;;;1.25;99.01;95480.06;4972595;28;19964;-48
2022/12/07 05:34:16;;;;;;;;;;;6.40;64.60;;;1.24;99.17;95487.16;4971718;28;20000;-49
2022/12/07 05:36:44;;;;;;;;;;;6.40;64.70;;;1.22;98.94;95491.78;4968399;28;19948;-48
2022/12/07 05:39:10;;;;;;;;;;;6.40;65.50;;;1.24;99.44;95481.09;4972518;28;19936;-48
2022/12/07 05:44:25;;;;;;;;;;;6.40;64.80;;;1.21;99.53;95484.94;4971770;28;19956;-58
2022/12/07 05:46:54;;;;;;;;;;;6.40;64.90;;;1.22;99.68;95485.75;4971091;28;19918;-48
2022/12/07 05:49:20;;;;;;;;;;;6.40;64.90;;;1.22;99.57;95480.50;4987074;28;19955;-48
2022/12/07 05:52:01;;;;;;;;;;;6.40;64.90;;;1.23;99.67;95479.50;4970017;28;19914;-55
2022/12/07 05:54:33;;;;;;;;;;;6.40;64.90;;;1.25;99.52;95485.31;4972304;28;19941;-48
2022/12/07 05:56:59;;;;;;;;;;;6.40;64.90;;;1.23;99.90;95493.41;4969860;28;20265;-48
2022/12/07 05:59:26;;;;;;;;;;;6.40;65.00;;;1.23;100.00;95495.25;4978508;28;19913;-48
2022/12/07 06:02:04;;;;;;;;;;;6.40;65.00;;;1.24;100.00;95488.97;4971692;28;19941;-48
2022/12/07 06:04:35;;;;;;;;;;;6.40;65.00;;;1.23;100.00;95492.63;4970135;28;19910;-49
2022/12/07 06:07:05;;;;;;;;;;;6.50;65.00;;;1.22;100.00;95493.63;4982437;28;20014;-49
2022/12/07 06:09:32;;;;;;;;;;;6.50;65.00;;;1.24;100.00;95487.16;4973182;28;19955;-49
2022/12/07 06:14:44;;;;;;;;;;;6.50;65.10;;;1.25;100.00;95493.19;4982887;28;19916;-54
2022/12/07 06:17:12;;;;;;;;;;;6.50;65.10;;;1.25;100.00;95493.19;4986165;28;19914;-50
2022/12/07 06:19:41;;;;;;;;;;;6.50;65.10;;;1.25;100.00;95493.19;4969759;28;19917;-50
2022/12/07 06:22:08;;;;;;;;;;;6.50;65.20;;;1.26;100.00;95505.31;4968847;28;20013;-52
2022/12/07 06:24:35;;;;;;;;;;;6.50;65.20;;;1.25;100.00;95499.25;4971408;28;19909;-52
2022/12/07 06:27:01;;;;;;;;;;;6.50;65.20;;;1.26;100.00;95493.00;4970311;28;19917;-51
2022/12/07 06:29:26;;;;;;;;;;;6.50;65.20;;;1.27;100.00;95496.44;4971523;28;20282;-48
2022/12/07 06:31:52;;;;;;;;;;;6.50;65.20;;;1.27;100.00;95501.69;4982873;28;20020;-49
2022/12/07 06:34:22;;;;;;;;;;;6.50;65.20;;;1.28;100.00;95498.03;4973774;28;19916;-48
2022/12/07 06:36:51;;;;;;;;;;;6.50;65.30;;;1.27;100.00;95497.22;4954699;28;20133;-48
2022/12/07 06:39:24;;;;;;;;;;;6.50;65.20;;;1.29;100.00;95503.09;4968388;28;20369;-48
2022/12/07 06:41:54;;;;;;;;;;;6.50;65.20;;;1.26;100.00;95513.19;4969901;28;20045;-51
2022/12/07 06:44:32;;;;;;;;;;;6.40;65.10;;;1.21;100.00;95505.94;4963454;28;19917;-49
2022/12/07 06:47:02;;;;;;;;;;;6.50;65.30;;;1.23;100.00;95500.50;4981285;28;19952;-48
2022/12/07 06:49:33;;;;;;;;;;;6.50;65.30;;;1.23;100.00;95497.88;4986184;28;19969;-48
2022/12/07 06:51:59;;;;;;;;;;;6.40;65.30;;;1.18;100.00;95500.31;4970040;28;20278;-49
2022/12/07 06:54:30;;;;;;;;;;;6.40;65.30;;;1.15;100.00;95504.13;4971138;28;19917;-49
2022/12/07 06:56:56;;;;;;;;;;;6.50;65.30;;;1.13;100.00;95503.56;4959496;28;19914;-53
2022/12/07 06:59:21;;;;;;;;;;;6.50;65.30;;;1.15;100.00;95504.94;4968421;28;20008;-49
2022/12/07 07:01:47;;;;;;;;;;;6.50;65.40;;;1.16;100.00;95508.41;4968313;28;20012;-48
2022/12/07 07:04:13;;;;;;;;;;;6.40;65.30;;;1.17;100.00;95498.69;4967915;28;19916;-51
2022/12/07 07:06:41;;;;;;;;;;;6.40;65.40;;;1.18;100.00;95500.31;4971079;28;20336;-50
2022/12/07 07:09:07;;;;;;;;;;;6.40;65.40;;;1.17;100.00;95499.50;4969371;28;19956;-49
2022/12/07 07:11:32;;;;;;;;;;;6.40;65.50;;;1.20;100.00;95503.53;4970861;28;20373;-49
2022/12/07 07:14:02;;;;;;;;;;;6.40;65.50;;;1.20;100.00;95503.53;4969363;28;19910;-48
2022/12/07 07:16:31;;;;;;;;;;;6.40;65.50;;;1.14;100.00;95498.09;4969148;28;19917;-50
2022/12/07 07:18:59;;;;;;;;;;;6.40;65.60;;;1.14;100.00;95508.59;4963488;28;19925;-54
2022/12/07 07:21:28;;;;;;;;;;;6.40;65.60;;;1.14;100.00;95507.78;4967663;28;19913;-48
2022/12/07 07:23:54;;;;;;;;;;;6.40;65.60;;;1.12;100.00;95500.09;4984432;28;19913;-54
2022/12/07 07:26:19;;;;;;;;;;;6.30;65.60;;;1.15;100.00;95498.88;4973923;28;19924;-48
2022/12/07 07:28:48;;;;;;;;;;;6.30;65.60;;;1.14;100.00;95508.59;4970375;28;19916;-48
2022/12/07 07:31:14;;;;;;;;;;;6.30;65.70;;;1.15;100.00;95504.94;4984090;28;19964;-49
2022/12/07 07:33:40;;;;;;;;;;;6.30;65.70;;;1.11;100.00;95509.00;4968184;28;20394;-49
2022/12/07 07:36:06;;;;;;;;;;;6.30;65.70;;;1.12;100.00;95507.97;4982809;28;20303;-50
2022/12/07 07:38:32;;;;;;;;;;;6.30;65.70;;;1.10;100.00;95512.66;4983618;28;19922;-51
2022/12/07 07:41:03;;;;;;;;;;;6.40;65.80;;;1.11;100.00;95519.50;4983744;28;19920;-48
2022/12/07 07:43:32;;;;;;;;;;;6.40;65.80;;;1.12;100.00;95517.66;4985232;28;19956;-51
2022/12/07 07:45:58;;;;;;;;;;;6.30;65.70;;;1.12;100.00;95512.41;4966358;28;19913;-49
2022/12/07 07:48:25;;;;;;;;;;;6.30;65.80;;;1.10;100.00;95515.28;4969879;28;20292;-49
2022/12/07 07:50:51;;;;;;;;;;;6.30;65.80;;;1.12;100.00;95521.09;4967140;28;19921;-50
2022/12/07 07:53:17;;;;;;;;;;;6.30;65.80;;;1.11;100.00;95514.25;4967510;28;19909;-52
2022/12/07 07:55:53;;;;;;;;;;;6.30;65.90;;;1.14;100.00;95524.31;4967897;28;19914;-48
2022/12/07 07:58:19;;;;;;;;;;;6.40;66.00;;;1.18;100.00;95516.84;4947840;28;19935;-51
2022/12/07 08:00:45;;;;;;;;;;;6.40;66.00;;;1.19;100.00;95526.31;4966455;28;19949;-49
2022/12/07 08:03:11;;;;;;;;;;;6.40;66.10;;;1.22;100.00;95525.91;4965023;28;19917;-48
2022/12/07 08:05:38;;;;;;;;;;;6.40;66.10;;;1.24;100.00;95526.50;4963538;28;19925;-48
2022/12/07 08:08:04;;;;;;;;;;;6.40;66.10;;;1.23;100.00;95521.47;4967279;28;19917;-53
2022/12/07 08:10:34;;;;;;;;;;;6.40;66.00;;;1.24;100.00;95531.75;4966474;28;20004;-48
2022/12/07 08:13:15;;;;;;;;;;;6.50;66.10;;;1.23;100.00;95527.53;4967258;28;20221;-51
2022/12/07 08:15:53;;;;;;;;;;;6.50;66.10;;;1.20;100.00;95525.31;4961815;28;19910;-49
2022/12/07 08:18:18;;;;;;;;;;;6.50;66.10;;;1.25;100.00;95532.56;4969417;28;20340;-50
2022/12/07 08:20:44;;;;;;;;;;;6.50;66.10;;;1.29;100.00;95531.16;4968457;28;19914;-50
2022/12/07 08:23:11;;;;;;;;;;;6.50;66.10;;;1.29;100.00;95531.97;4968167;28;19925;-50
2022/12/07 08:25:37;;;;;;;;;;;6.50;66.10;;;1.32;100.00;95539.41;4983970;28;19921;-50
2022/12/07 08:28:03;;;;;;;;;;;6.50;66.10;;;1.31;100.00;95536.97;4967905;28;20008;-50
2022/12/07 08:30:31;;;;;;;;;;;6.60;66.10;;;1.33;100.00;95530.53;4968033;28;20366;-52
2022/12/07 08:32:58;;;;;;;;;;;6.60;66.00;;;1.34;100.00;95531.31;4964013;28;26629;-55
2022/12/07 08:35:24;;;;;;;;;;;6.60;66.10;;;1.30;100.00;95541.44;4970107;28;20056;-49
2022/12/07 08:37:50;;;;;;;;;;;6.60;66.00;;;1.25;100.00;95543.88;4969478;28;20016;-49
2022/12/07 08:40:18;;;;;;;;;;;6.60;66.00;;;1.29;100.00;95539.03;4968054;28;20295;-51
2022/12/07 08:42:51;;;;;;;;;;;6.60;66.00;;;1.31;100.00;95540.41;4969629;28;19910;-49
2022/12/07 08:45:21;;;;;;;;;;;6.60;66.00;;;1.34;100.00;95539.19;4968869;28;20396;-51
2022/12/07 08:48:02;;;;;;;;;;;6.60;66.10;;;1.34;100.00;95537.38;4971429;28;19914;-51
2022/12/07 08:50:29;;;;;;;;;;;6.60;66.00;;;1.35;100.00;95539.00;4985116;28;19914;-48
2022/12/07 08:52:58;;;;;;;;;;;6.70;66.10;;;1.39;100.00;95542.00;4984331;28;20356;-57
2022/12/07 08:55:34;;;;;;;;;;;6.70;66.10;;;1.38;100.00;95541.22;4976112;28;19956;-48
2022/12/07 08:58:02;;;;;;;;;;;6.70;66.20;;;1.42;100.00;95538.97;4970223;28;19949;-54
2022/12/07 09:00:28;;;;;;;;;;;6.70;66.20;;;1.43;100.00;95537.94;4968068;28;20347;-49
2022/12/07 09:02:54;;;;;;;;;;;6.70;66.20;;;1.45;100.00;95530.69;4970859;28;19910;-57
2022/12/07 09:05:36;;;;;;;;;;;6.70;66.10;;;1.48;100.00;95535.50;4973543;28;19948;-49
2022/12/07 09:08:02;;;;;;;;;;;6.80;66.20;;;1.51;100.00;95534.31;4971537;28;19968;-50
2022/12/07 09:10:39;;;;;;;;;;;6.80;66.10;;;1.53;100.00;95542.75;4925729;28;20855;-49
2022/12/07 09:13:07;;;;;;;;;;;6.80;66.10;;;1.53;100.00;95543.56;4979038;28;19921;-55
2022/12/07 09:15:36;;;;;;;;;;;6.90;66.10;;;1.59;100.00;95547.97;4969636;28;19910;-48
2022/12/07 09:18:02;;;;;;;;;;;6.90;66.10;;;1.61;100.00;95539.91;4972266;28;19946;-50
2022/12/07 09:20:37;;;;;;;;;;;6.90;66.10;;;1.60;100.00;95544.34;4971102;28;19964;-49
2022/12/07 09:23:06;;;;;;;;;;;7.00;66.10;;;1.67;100.00;95544.31;4971054;28;19913;-49
2022/12/07 09:25:35;;;;;;;;;;;7.10;66.10;;;1.73;100.00;95548.72;4967423;28;19914;-48
2022/12/07 09:28:01;;;;;;;;;;;7.10;66.00;;;1.75;100.00;95549.31;4985521;28;19920;-53
2022/12/07 09:30:28;;;;;;;;;;;7.20;66.10;;;1.79;100.00;95552.34;4971965;28;19917;-50
2022/12/07 09:32:55;;;;;;;;;;;7.20;66.00;;;1.82;100.00;95554.56;4963985;28;19910;-49
2022/12/07 09:35:21;;;;;;;;;;;7.20;66.00;;;1.90;100.00;95561.38;4974406;28;20265;-49
2022/12/07 09:37:47;;;;;;;;;;;7.30;66.00;;;1.91;100.00;95557.72;4990784;28;19909;-49
2022/12/07 09:40:16;;;;;;;;;;;7.30;66.00;;;1.91;100.00;95555.09;4990210;28;19916;-48
2022/12/07 09:42:51;;;;;;;;;;;7.40;65.90;;;1.91;100.00;95553.25;4972399;28;20311;-50
2022/12/07 09:45:41;;;;;;;;;;;7.50;65.90;;;1.98;100.00;95555.88;4972528;28;19917;-49
2022/12/07 09:48:20;;;;;;;;;;;7.50;65.80;;;2.03;100.00;95551.59;4975939;28;19917;-48
2022/12/07 09:50:49;;;;;;;;;;;7.50;65.80;;;2.08;100.00;95553.59;4970051;28;19909;-49
2022/12/07 09:53:27;;;;;;;;;;;7.60;65.90;;;2.11;100.00;95552.38;5003304;28;19909;-50
2022/12/07 09:55:55;;;;;;;;;;;7.60;65.80;;;2.17;100.00;95552.31;4972955;28;19918;-50
2022/12/07 09:58:26;;;;;;;;;;;7.70;65.80;;;2.19;100.00;95552.09;4972380;28;19917;-50
2022/12/07 10:01:07;;;;;;;;;;;7.70;65.80;;;2.22;100.00;95541.16;4973044;28;19909;-53
2022/12/07 10:03:38;;;;;;;;;;;7.80;65.80;;;2.25;100.00;95538.09;4988856;28;19937;-55
2022/12/07 10:06:05;;;;;;;;;;;7.80;65.70;;;2.33;100.00;95535.22;4990592;28;19921;-48
2022/12/07 10:08:32;;;;;;;;;;;7.90;65.80;;;2.35;100.00;95535.81;4972538;28;19973;-49
2022/12/07 10:11:02;;;;;;;;;;;7.90;65.70;;;2.39;100.00;95523.84;4988538;28;20316;-48
2022/12/07 10:13:49;;;;;;;;;;;8.00;65.60;;;2.47;100.00;95523.56;5005035;28;19910;-49
2022/12/07 10:16:24;;;;;;;;;;;8.00;65.50;;;2.54;100.00;95518.28;4999371;28;19909;-49
2022/12/07 10:18:51;;;;;;;;;;;8.10;65.50;;;2.56;100.00;95510.97;4989250;28;19948;-54
2022/12/07 10:21:23;;;;;;;;;;;8.20;65.50;;;2.59;100.00;95512.38;4982116;28;19913;-48
2022/12/07 10:24:11;;;;;;;;;;;8.30;65.50;;;2.66;99.71;95506.00;4981367;28;19918;-48
2022/12/07 10:26:52;;;;;;;;;;;8.40;65.30;;;2.74;99.45;95508.38;4967426;28;20028;-56
2022/12/07 10:29:27;;;;;;;;;;;8.40;65.20;;;2.81;99.50;95505.66;4978959;28;19913;-49
2022/12/07 10:32:23;;;;;;;;;;;8.50;65.20;;;2.88;99.30;95503.78;4977608;28;19995;-51
2022/12/07 10:34:49;;;;;;;;;;;8.60;65.10;;;2.94;98.82;95504.72;4982130;28;19917;-52
2022/12/07 10:37:25;;;;;;;;;;;8.70;65.10;;;2.96;98.47;95502.69;4949654;28;19925;-51
2022/12/07 10:39:57;;;;;;;;;;;8.70;65.00;;;3.00;98.38;95496.75;4950877;28;19910;-52
2022/12/07 10:42:30;;;;;;;;;;;8.70;65.70;;;3.04;98.17;95491.91;4934958;28;21245;-51
2022/12/07 10:45:09;;;;;;;;;;;8.70;64.80;;;3.06;96.71;95487.19;4950677;28;19914;-53
2022/12/07 10:48:45;;;;;;;;;;;8.80;64.90;;;3.01;95.82;95487.88;4961455;28;19910;-54
2022/12/07 10:51:46;;;;;;;;;;;8.80;64.70;;;3.07;95.61;95486.19;4893875;29;19917;-51
2022/12/07 10:54:35;;;;;;;;;;;8.80;64.60;;;3.12;95.86;95480.25;4931432;28;19914;-54
2022/12/07 10:57:25;;;;;;;;;;;8.90;64.60;;;3.17;95.08;95478.59;4950572;28;19949;-51
2022/12/07 11:00:35;;;;;;;;;;;9.00;64.60;;;3.22;94.73;95475.28;4951341;28;20381;-51
2022/12/07 11:03:36;;;;;;;;;;;9.00;64.50;;;3.21;95.20;95473.66;4944061;28;20008;-52
2022/12/07 11:06:31;;;;;;;;;;;9.00;64.40;;;3.24;95.24;95470.59;4947588;28;19914;-51
2022/12/07 11:09:03;;;;;;;;;;;9.00;64.50;;;3.29;95.23;95470.75;4945352;28;20029;-51
2022/12/07 11:11:46;;;;;;;;;;;9.10;64.40;;;3.30;94.49;95459.19;4949942;28;19917;-52
2022/12/07 11:14:44;;;;;;;;;;;9.10;64.20;;;3.39;94.63;95460.50;4961133;28;19910;-53
2022/12/07 11:17:20;;;;;;;;;;;9.20;64.30;;;3.53;95.46;95449.78;4962686;28;20288;-51
2022/12/07 11:20:39;;;;;;;;;;;9.30;64.30;;;3.58;94.14;95455.19;4965415;28;20323;-51
2022/12/07 11:23:18;;;;;;;;;;;9.30;64.20;;;3.57;95.17;95451.72;4963400;28;20292;-51
2022/12/07 11:26:24;;;;;;;;;;;9.40;64.20;;;3.55;93.49;95443.25;4951499;28;19946;-51
2022/12/07 11:29:34;;;;;;;;;;;9.30;64.10;;;3.59;93.74;95444.41;4949743;28;19914;-51
2022/12/07 11:32:07;;;;;;;;;;;9.40;64.10;;;3.66;93.20;95439.84;4966335;28;19918;-53
2022/12/07 11:35:07;;;;;;;;;;;9.50;64.10;;;3.56;91.69;95436.16;4964855;28;20452;-52
2022/12/07 11:37:40;;;;;;;;;;;9.50;63.80;;;3.60;90.39;95440.75;4966692;28;20398;-51
2022/12/07 11:40:37;;;;;;;;;;;9.60;63.70;;;3.55;89.80;95432.72;4950499;28;20408;-54
2022/12/07 11:43:35;;;;;;;;;;;9.70;63.60;;;3.69;90.88;95428.88;4966369;28;19910;-52
2022/12/07 11:46:24;;;;;;;;;;;9.70;63.50;;;3.78;89.74;95437.25;4964338;28;20543;-54
2022/12/07 11:49:31;;;;;;;;;;;9.70;63.40;;;3.91;88.78;95431.78;4965317;28;19949;-51
2022/12/07 11:52:08;;;;;;;;;;;9.80;63.50;;;3.89;85.26;95431.22;4963364;28;19958;-53
2022/12/07 11:54:43;;;;;;;;;;;9.80;63.30;;;3.90;83.61;95424.13;4965316;28;19910;-53
2022/12/07 11:57:41;;;;;;;;;;;9.90;63.20;;;3.89;82.94;95425.16;4964075;28;19910;-51
2022/12/07 12:00:17;;;;;;;;;;;9.90;62.90;;;3.95;83.28;95421.63;4964862;28;19910;-51
2022/12/07 12:03:12;;;;;;;;;;;9.90;62.80;;;3.98;82.40;95412.44;4941953;28;19916;-50
2022/12/07 12:05:41;;;;;;;;;;;9.90;62.70;;;4.01;81.92;95412.81;4965430;28;20377;-51
2022/12/07 12:08:21;;;;;;;;;;;9.80;62.60;;;4.05;82.24;95410.50;4965768;28;19917;-52